Time;durP1;ratioP1;P1;durP2;ratioP2;P2;SDS_P1;SDS_P2;PMS_P1;PMS_P2;Temp;Humidity;BMP_temperature;BMP_pressure;BME280_temperature;BME280_humidity;BME280_pressure;Samples;Min_cycle;Max_cycle;Signal;HPM_P1;HPM_P2
2022/08/23 00:01:09;;;;;;;4.37;3.40;;;22.80;1.00;;;;;;5088782;28;20431;-75
2022/08/23 00:03:34;;;;;;;5.10;3.70;;;22.80;1.00;;;;;;5085203;28;20461;-75
2022/08/23 00:06:00;;;;;;;5.03;3.30;;;22.80;1.00;;;;;;5089854;28;20516;-74
2022/08/23 00:08:26;;;;;;;6.97;3.43;;;22.80;1.00;;;;;;5091886;28;20191;-75
2022/08/23 00:10:52;;;;;;;8.10;3.60;;;22.80;1.00;;;;;;5088155;28;20981;-82
2022/08/23 00:13:17;;;;;;;6.13;3.40;;;22.70;1.00;;;;;;5085279;28;20210;-75
2022/08/23 00:15:43;;;;;;;6.20;3.30;;;22.70;1.00;;;;;;5086236;28;20231;-75
2022/08/23 00:18:08;;;;;;;7.33;3.40;;;22.70;1.00;;;;;;5083768;28;20204;-75
2022/08/23 00:20:34;;;;;;;5.80;3.40;;;22.60;1.00;;;;;;5089092;28;20170;-76
2022/08/23 00:22:59;;;;;;;4.20;3.53;;;22.70;1.00;;;;;;5078297;28;20269;-75
2022/08/23 00:25:25;;;;;;;6.00;3.40;;;22.60;1.00;;;;;;5087675;28;20228;-75
2022/08/23 00:27:51;;;;;;;6.23;4.03;;;22.50;1.00;;;;;;5089493;28;20274;-75
2022/08/23 00:30:17;;;;;;;6.17;3.30;;;23.00;1.00;;;;;;5085177;28;20206;-75
2022/08/23 00:32:44;;;;;;;7.97;3.63;;;22.50;1.00;;;;;;5085215;28;20289;-75
2022/08/23 00:35:11;;;;;;;4.43;3.30;;;22.40;1.00;;;;;;5087506;28;20476;-75
2022/08/23 00:37:38;;;;;;;7.60;3.80;;;22.70;1.00;;;;;;5082627;28;20433;-78
2022/08/23 00:40:07;;;;;;;4.97;3.57;;;22.40;1.00;;;;;;5072976;28;20418;-75
2022/08/23 00:48:26;;;;;;;5.97;3.60;;;22.30;1.00;;;;;;5092972;28;20529;-76
2022/08/23 00:51:15;;;;;;;8.23;3.40;;;22.30;1.00;;;;;;5088978;28;20471;-82
2022/08/23 00:53:45;;;;;;;6.40;3.93;;;22.20;1.00;;;;;;5088219;28;20425;-75
2022/08/23 00:56:13;;;;;;;5.40;3.53;;;22.20;1.00;;;;;;5088722;28;20952;-75
2022/08/23 00:58:39;;;;;;;5.70;3.20;;;22.20;1.00;;;;;;5088676;28;22045;-76
2022/08/23 01:01:05;;;;;;;5.13;3.80;;;22.20;1.00;;;;;;5078159;28;21028;-78
2022/08/23 01:03:33;;;;;;;8.67;3.73;;;22.20;1.00;;;;;;5089580;28;20199;-75
2022/08/23 01:06:12;;;;;;;5.00;3.57;;;22.20;1.00;;;;;;5082579;28;20225;-80
2022/08/23 01:08:41;;;;;;;5.93;3.63;;;22.10;1.00;;;;;;5083347;28;20435;-75
2022/08/23 01:11:14;;;;;;;6.90;3.77;;;22.10;1.00;;;;;;5088386;28;20501;-75
2022/08/23 01:13:46;;;;;;;4.53;3.63;;;22.10;1.00;;;;;;5089871;28;20432;-76
2022/08/23 01:16:32;;;;;;;5.17;3.70;;;22.10;1.00;;;;;;5088352;28;20424;-76
2022/08/23 01:19:00;;;;;;;6.87;3.50;;;22.20;1.00;;;;;;5084636;28;20492;-76
2022/08/23 01:21:45;;;;;;;8.13;3.53;;;22.20;1.00;;;;;;5091692;28;20481;-76
2022/08/23 01:24:12;;;;;;;5.47;3.17;;;22.20;1.00;;;;;;5083429;28;20901;-75
2022/08/23 01:26:38;;;;;;;5.63;3.33;;;22.20;1.00;;;;;;5086079;28;20453;-76
2022/08/23 01:29:05;;;;;;;5.30;3.50;;;22.10;1.00;;;;;;5084757;28;20438;-75
2022/08/23 01:31:32;;;;;;;5.90;4.00;;;22.10;1.00;;;;;;5082610;28;20245;-76
2022/08/23 01:34:02;;;;;;;6.27;3.10;;;22.20;1.00;;;;;;5089960;28;20486;-76
2022/08/23 01:36:29;;;;;;;6.57;3.60;;;22.20;1.00;;;;;;5085373;28;20962;-75
2022/08/23 01:38:55;;;;;;;3.90;3.10;;;22.20;1.00;;;;;;5084015;28;20430;-75
2022/08/23 01:41:21;;;;;;;3.83;2.90;;;22.20;1.00;;;;;;5086973;28;20441;-76
2022/08/23 01:43:47;;;;;;;5.07;3.30;;;22.20;1.00;;;;;;5075891;28;20552;-75
2022/08/23 01:46:16;;;;;;;5.30;3.50;;;22.10;1.00;;;;;;5089814;28;20168;-76
2022/08/23 01:48:44;;;;;;;6.17;3.40;;;22.00;1.00;;;;;;5084606;28;20197;-75
2022/08/23 01:51:11;;;;;;;4.20;3.10;;;22.00;1.00;;;;;;5084636;28;20486;-76
2022/08/23 01:53:36;;;;;;;7.73;3.80;;;22.00;1.00;;;;;;5098335;28;20450;-77
2022/08/23 01:56:04;;;;;;;4.27;3.27;;;21.90;1.00;;;;;;5079536;28;20749;-76
2022/08/23 01:58:31;;;;;;;6.33;3.70;;;21.90;1.00;;;;;;5086451;28;20168;-75
2022/08/23 02:00:57;;;;;;;6.13;3.23;;;21.90;1.00;;;;;;5086953;28;20437;-75
2022/08/23 02:03:22;;;;;;;4.10;3.13;;;21.90;1.00;;;;;;5086779;28;20456;-75
2022/08/23 02:05:48;;;;;;;8.83;3.60;;;21.90;1.00;;;;;;5085185;28;20228;-75
2022/08/23 02:10:58;;;;;;;6.00;3.47;;;21.90;1.00;;;;;;5087312;28;21930;-75
2022/08/23 02:13:23;;;;;;;4.90;3.10;;;21.90;1.00;;;;;;5076630;28;21000;-75
2022/08/23 02:15:51;;;;;;;5.60;3.23;;;21.90;1.00;;;;;;5085214;28;20175;-75
2022/08/23 02:18:18;;;;;;;5.20;3.30;;;21.80;1.00;;;;;;5081399;28;20168;-75
2022/08/23 02:20:46;;;;;;;4.73;2.90;;;21.90;1.00;;;;;;5084184;28;20832;-75
2022/08/23 02:23:12;;;;;;;6.70;3.50;;;21.80;1.00;;;;;;5082649;28;20481;-75
2022/08/23 02:25:39;;;;;;;7.00;3.40;;;21.80;1.00;;;;;;5088824;28;20829;-75
2022/08/23 02:28:04;;;;;;;6.30;3.30;;;21.80;1.00;;;;;;5082220;28;20206;-75
2022/08/23 02:30:30;;;;;;;5.77;3.03;;;21.80;1.00;;;;;;5079608;28;20934;-75
2022/08/23 02:32:55;;;;;;;6.00;3.63;;;21.80;1.00;;;;;;5086945;28;20236;-75
2022/08/23 02:35:22;;;;;;;5.70;3.40;;;21.70;1.00;;;;;;5086770;28;20533;-75
2022/08/23 02:37:47;;;;;;;5.03;3.57;;;21.70;1.00;;;;;;5089063;28;20168;-74
2022/08/23 02:40:13;;;;;;;6.03;3.30;;;21.70;1.00;;;;;;5085897;28;20425;-75
2022/08/23 02:42:39;;;;;;;4.70;3.37;;;21.60;1.00;;;;;;5088551;28;20661;-75
2022/08/23 02:45:07;;;;;;;8.57;3.23;;;21.60;1.00;;;;;;5087504;28;20282;-75
2022/08/23 02:47:35;;;;;;;5.20;3.60;;;21.60;1.00;;;;;;5086420;28;20181;-75
2022/08/23 02:50:03;;;;;;;4.50;3.40;;;21.70;1.00;;;;;;5082418;28;20713;-76
2022/08/23 02:52:28;;;;;;;5.07;3.33;;;21.70;1.00;;;;;;5096705;28;20485;-77
2022/08/23 02:54:54;;;;;;;7.10;4.00;;;21.70;1.00;;;;;;5081180;28;20468;-75
2022/08/23 02:57:19;;;;;;;5.00;3.53;;;21.70;1.00;;;;;;5088250;28;20677;-75
2022/08/23 02:59:45;;;;;;;6.83;3.13;;;21.70;1.00;;;;;;5080730;28;20570;-75
2022/08/23 03:02:11;;;;;;;4.80;3.00;;;21.70;1.00;;;;;;5089642;28;20175;-75
2022/08/23 03:04:36;;;;;;;5.57;3.60;;;21.70;1.00;;;;;;5084793;28;20208;-75
2022/08/23 03:07:02;;;;;;;6.00;3.67;;;21.60;1.00;;;;;;5091824;28;20214;-75
2022/08/23 03:09:27;;;;;;;5.90;3.57;;;21.60;1.00;;;;;;5085813;28;20286;-75
2022/08/23 03:11:53;;;;;;;7.60;3.83;;;21.50;1.00;;;;;;5084489;28;20195;-75
2022/08/23 03:14:18;;;;;;;7.00;3.60;;;21.50;1.00;;;;;;5092245;28;20191;-75
2022/08/23 03:16:44;;;;;;;4.60;3.03;;;21.50;1.00;;;;;;5089336;28;20638;-75
2022/08/23 03:19:10;;;;;;;4.90;3.73;;;21.50;1.00;;;;;;5091277;28;20198;-75
2022/08/23 03:21:37;;;;;;;5.47;3.30;;;21.40;1.00;;;;;;5088345;28;20175;-73
2022/08/23 03:24:03;;;;;;;4.40;3.50;;;21.40;1.00;;;;;;5076837;28;20196;-75
2022/08/23 03:26:29;;;;;;;5.60;3.73;;;21.40;1.00;;;;;;5082750;28;20438;-75
2022/08/23 03:28:54;;;;;;;8.40;3.63;;;21.40;1.00;;;;;;5091586;28;20942;-75
2022/08/23 03:31:20;;;;;;;5.30;3.30;;;21.30;1.00;;;;;;5089275;28;20183;-75
2022/08/23 03:33:46;;;;;;;5.73;3.37;;;21.30;1.00;;;;;;5091096;28;20349;-77
2022/08/23 03:36:12;;;;;;;7.03;3.80;;;21.40;1.00;;;;;;5090479;28;20160;-76
2022/08/23 03:38:39;;;;;;;5.73;3.43;;;21.40;1.00;;;;;;5091789;28;20190;-77
2022/08/23 03:41:06;;;;;;;6.07;3.13;;;21.40;1.00;;;;;;5085002;28;20246;-75
2022/08/23 03:43:31;;;;;;;8.80;3.53;;;21.30;1.00;;;;;;5091268;28;20811;-76
2022/08/23 03:45:57;;;;;;;5.47;3.60;;;21.30;1.00;;;;;;5084972;28;20425;-76
2022/08/23 03:48:23;;;;;;;5.07;3.43;;;21.30;1.00;;;;;;5090993;28;20284;-77
2022/08/23 03:50:49;;;;;;;6.80;3.80;;;21.70;1.00;;;;;;5085318;28;20685;-76
2022/08/23 03:53:15;;;;;;;7.23;3.60;;;21.30;1.00;;;;;;5085634;28;20551;-75
2022/08/23 03:55:41;;;;;;;5.57;3.47;;;21.30;1.00;;;;;;5088578;28;20266;-75
2022/08/23 03:58:07;;;;;;;5.40;3.20;;;21.20;1.00;;;;;;5091043;28;20444;-76
2022/08/23 04:00:33;;;;;;;3.97;3.23;;;21.20;1.00;;;;;;5080251;28;20842;-75
2022/08/23 04:02:59;;;;;;;5.00;3.63;;;21.10;1.00;;;;;;5090485;28;20203;-75
2022/08/23 04:05:25;;;;;;;6.70;3.50;;;21.10;1.00;;;;;;5084049;28;20175;-76
2022/08/23 04:07:50;;;;;;;4.20;3.30;;;21.00;1.00;;;;;;5085992;28;20491;-76
2022/08/23 04:10:16;;;;;;;5.80;3.47;;;21.00;1.00;;;;;;5090519;28;20178;-76
2022/08/23 04:12:42;;;;;;;4.40;3.40;;;21.00;1.00;;;;;;5087755;28;20530;-76
2022/08/23 04:15:08;;;;;;;6.53;4.00;;;21.00;1.00;;;;;;5089184;28;20282;-77
2022/08/23 04:17:35;;;;;;;11.33;3.87;;;21.00;1.00;;;;;;5087006;28;20536;-76
2022/08/23 04:20:02;;;;;;;5.40;3.90;;;20.90;1.00;;;;;;5083155;28;20425;-77
2022/08/23 04:22:27;;;;;;;8.70;3.87;;;20.90;1.00;;;;;;5099204;28;20504;-76
2022/08/23 04:24:54;;;;;;;4.63;3.60;;;20.90;1.00;;;;;;5087286;28;20537;-74
2022/08/23 04:27:21;;;;;;;4.53;3.30;;;20.80;1.00;;;;;;5075257;28;20248;-76
2022/08/23 04:29:46;;;;;;;6.40;3.80;;;20.80;1.00;;;;;;5081877;28;20811;-75
2022/08/23 04:32:13;;;;;;;11.20;3.60;;;20.80;1.00;;;;;;5089506;28;20449;-76
2022/08/23 04:34:39;;;;;;;5.20;3.37;;;20.80;1.00;;;;;;5086179;28;20188;-76
2022/08/23 04:37:05;;;;;;;4.63;3.40;;;20.80;1.00;;;;;;5089608;28;20731;-76
2022/08/23 04:42:16;;;;;;;7.00;3.50;;;20.80;1.00;;;;;;5080362;28;20176;-76
2022/08/23 04:42:19;;;;;;;5.57;3.50;;;20.80;1.00;;;;;;5070416;28;20433;-76
2022/08/23 04:44:44;;;;;;;6.00;3.67;;;20.80;1.00;;;;;;5071330;28;20437;-77
2022/08/23 04:47:10;;;;;;;4.70;3.73;;;20.80;1.00;;;;;;5070039;28;20402;-76
2022/08/23 04:49:36;;;;;;;4.87;3.10;;;20.90;1.00;;;;;;5079640;28;20183;-74
2022/08/23 04:52:01;;;;;;;6.20;3.43;;;20.90;1.00;;;;;;5093729;28;20194;-76
2022/08/23 04:54:28;;;;;;;5.10;3.50;;;20.90;1.00;;;;;;5083845;28;20196;-76
2022/08/23 04:56:54;;;;;;;4.50;3.50;;;20.90;1.00;;;;;;5089882;28;20673;-75
2022/08/23 04:59:19;;;;;;;7.23;3.60;;;20.90;1.00;;;;;;5086424;28;20446;-76
2022/08/23 05:01:45;;;;;;;5.73;3.87;;;20.90;1.00;;;;;;5088358;28;20194;-75
2022/08/23 05:04:10;;;;;;;5.07;3.63;;;21.00;1.00;;;;;;5083646;28;20198;-75
2022/08/23 05:06:37;;;;;;;5.10;3.73;;;21.00;1.00;;;;;;5090079;28;20248;-75
2022/08/23 05:09:03;;;;;;;6.40;3.80;;;21.00;1.00;;;;;;5087338;28;20259;-75
2022/08/23 05:11:28;;;;;;;5.77;3.40;;;21.00;1.00;;;;;;5082825;28;20958;-76
2022/08/23 05:13:55;;;;;;;4.60;3.60;;;21.00;1.00;;;;;;5084393;28;20206;-75
2022/08/23 05:16:20;;;;;;;7.70;3.63;;;21.00;1.00;;;;;;5089624;28;20209;-75
2022/08/23 05:18:46;;;;;;;5.47;3.90;;;21.10;1.00;;;;;;5087899;28;20449;-75
2022/08/23 05:21:19;;;;;;;6.50;3.97;;;21.20;1.00;;;;;;5092439;28;20167;-76
2022/08/23 05:23:45;;;;;;;5.20;3.60;;;21.20;1.00;;;;;;5082440;28;20283;-76
2022/08/23 05:26:10;;;;;;;6.53;3.77;;;21.20;1.00;;;;;;5082978;28;20787;-75
2022/08/23 05:28:40;;;;;;;6.27;3.23;;;21.30;1.00;;;;;;5077624;28;20724;-76
2022/08/23 05:31:12;;;;;;;4.43;3.30;;;21.60;1.00;;;;;;5082340;28;20722;-76
2022/08/23 05:33:39;;;;;;;4.97;3.43;;;21.30;1.00;;;;;;5075333;28;20441;-76
2022/08/23 05:36:05;;;;;;;6.10;3.90;;;21.40;1.00;;;;;;5091466;28;20409;-76
2022/08/23 05:38:31;;;;;;;8.83;3.30;;;21.50;1.00;;;;;;5086543;28;21085;-77
2022/08/23 05:40:57;;;;;;;5.40;3.37;;;21.50;1.00;;;;;;5086772;28;21211;-78
2022/08/23 05:43:24;;;;;;;6.73;3.67;;;21.50;1.00;;;;;;5089896;28;20375;-78
2022/08/23 05:46:05;;;;;;;7.60;3.47;;;21.70;1.00;;;;;;5089825;28;20178;-77
2022/08/23 05:48:32;;;;;;;5.27;3.67;;;21.70;1.00;;;;;;5076261;28;20480;-77
2022/08/23 05:51:18;;;;;;;5.70;3.70;;;21.80;1.00;;;;;;5081949;28;20408;-78
2022/08/23 05:53:45;;;;;;;9.93;3.80;;;21.90;1.00;;;;;;5101097;28;20928;-78
2022/08/23 05:56:18;;;;;;;4.93;3.20;;;21.90;1.00;;;;;;5089184;28;20480;-77
2022/08/23 05:58:45;;;;;;;3.83;3.17;;;22.00;1.00;;;;;;5086762;28;20505;-78
2022/08/23 06:01:13;;;;;;;4.60;3.53;;;22.10;1.00;;;;;;5068919;28;20410;-79
2022/08/23 06:03:40;;;;;;;6.17;3.50;;;22.00;1.00;;;;;;5069648;28;20609;-78
2022/08/23 06:06:07;;;;;;;8.60;3.50;;;22.10;1.00;;;;;;5082999;28;20438;-77
2022/08/23 06:08:34;;;;;;;7.43;3.30;;;22.20;1.00;;;;;;5070378;28;20888;-79
2022/08/23 06:11:02;;;;;;;4.40;3.40;;;22.30;1.00;;;;;;5070014;28;20394;-78
2022/08/23 06:13:28;;;;;;;4.60;3.37;;;22.40;1.00;;;;;;5070134;28;20979;-78
2022/08/23 06:15:56;;;;;;;5.63;3.70;;;22.50;1.00;;;;;;5072515;28;20548;-79
2022/08/23 06:18:21;;;;;;;8.10;4.67;;;22.70;1.00;;;;;;5071926;28;20434;-79
2022/08/23 06:20:47;;;;;;;4.77;3.23;;;22.80;1.00;;;;;;5091130;28;20417;-80
2022/08/23 06:23:12;;;;;;;4.63;3.30;;;22.80;1.00;;;;;;5081398;28;20356;-79
2022/08/23 06:25:39;;;;;;;5.30;3.40;;;23.00;1.00;;;;;;5075064;28;20258;-78
2022/08/23 06:28:04;;;;;;;6.80;3.63;;;23.10;1.00;;;;;;5079500;28;20182;-79
2022/08/23 06:30:30;;;;;;;5.47;3.47;;;23.30;1.00;;;;;;5088210;28;20413;-81
2022/08/23 06:32:55;;;;;;;5.70;3.43;;;23.40;1.00;;;;;;5078016;28;20203;-79
2022/08/23 06:35:21;;;;;;;5.47;3.30;;;23.50;1.00;;;;;;5079029;28;20179;-79
2022/08/23 06:37:46;;;;;;;5.10;3.40;;;23.70;1.00;;;;;;5089019;28;20218;-78
2022/08/23 06:40:12;;;;;;;4.93;3.10;;;23.70;1.00;;;;;;5082709;28;20210;-78
2022/08/23 06:42:37;;;;;;;10.97;3.30;;;23.70;1.00;;;;;;5082740;28;20263;-79
2022/08/23 06:45:03;;;;;;;4.50;3.30;;;24.00;1.00;;;;;;5091213;28;20190;-78
2022/08/23 06:47:30;;;;;;;9.63;3.43;;;23.80;1.00;;;;;;5086629;28;20199;-80
2022/08/23 06:49:56;;;;;;;5.67;3.27;;;24.00;1.00;;;;;;5091101;28;20515;-82
2022/08/23 06:52:22;;;;;;;6.50;3.37;;;24.00;1.00;;;;;;5091654;28;20503;-79
2022/08/23 06:54:48;;;;;;;6.07;3.90;;;24.20;1.00;;;;;;5094095;28;20457;-80
2022/08/23 06:57:13;;;;;;;4.70;2.97;;;24.20;1.00;;;;;;5088736;28;20602;-81
2022/08/23 06:59:39;;;;;;;8.10;4.00;;;24.00;1.00;;;;;;5088009;28;20195;-79
2022/08/23 07:02:07;;;;;;;5.47;3.23;;;24.00;1.00;;;;;;5085461;28;20243;-80
2022/08/23 07:04:37;;;;;;;4.87;3.67;;;24.10;1.00;;;;;;5088034;28;20213;-79
2022/08/23 07:07:03;;;;;;;14.23;3.63;;;24.20;1.00;;;;;;5078622;28;20432;-79
2022/08/23 07:09:31;;;;;;;9.20;3.53;;;24.40;1.00;;;;;;5086975;28;20425;-79
2022/08/23 07:11:57;;;;;;;5.13;3.77;;;24.60;1.00;;;;;;5085673;28;20449;-78
2022/08/23 07:14:24;;;;;;;4.60;3.70;;;24.70;1.00;;;;;;5082901;28;20450;-78
2022/08/23 07:16:52;;;;;;;5.63;3.53;;;24.80;1.00;;;;;;5084049;28;20548;-80
2022/08/23 07:19:27;;;;;;;6.63;3.40;;;25.00;1.00;;;;;;5082370;28;20425;-79
2022/08/23 07:21:53;;;;;;;8.20;3.73;;;25.00;1.00;;;;;;5082480;28;20429;-80
2022/08/23 07:24:21;;;;;;;5.27;4.20;;;25.20;1.00;;;;;;5090674;28;20464;-80
2022/08/23 07:26:48;;;;;;;5.20;3.70;;;25.40;1.00;;;;;;5092405;28;20187;-78
2022/08/23 07:29:14;;;;;;;7.53;4.20;;;25.40;1.00;;;;;;5088010;28;20433;-79
2022/08/23 07:31:45;;;;;;;6.73;3.80;;;25.40;1.00;;;;;;5089187;28;20922;-80
2022/08/23 07:34:11;;;;;;;5.63;3.63;;;25.60;1.00;;;;;;5091997;28;20423;-78
2022/08/23 07:36:39;;;;;;;11.07;3.80;;;25.60;1.00;;;;;;5082761;28;20435;-78
2022/08/23 07:39:06;;;;;;;7.33;4.00;;;25.90;1.00;;;;;;5088861;28;20451;-78
2022/08/23 07:41:32;;;;;;;5.93;3.60;;;26.00;1.00;;;;;;5087309;28;20456;-77
2022/08/23 07:44:02;;;;;;;9.83;4.00;;;26.20;1.00;;;;;;5083731;28;20731;-78
2022/08/23 07:46:29;;;;;;;6.93;4.10;;;26.90;1.00;;;;;;5082341;28;20437;-78
2022/08/23 07:48:57;;;;;;;8.13;4.17;;;28.00;1.00;;;;;;5084679;28;20444;-82
2022/08/23 07:51:23;;;;;;;7.50;3.60;;;29.10;1.00;;;;;;5080838;28;20428;-78
2022/08/23 07:53:48;;;;;;;7.32;4.20;;;29.90;1.00;;;;;;5078555;28;20266;-78
2022/08/23 07:56:15;;;;;;;5.65;3.50;;;30.60;1.00;;;;;;5085692;28;20285;-78
2022/08/23 07:58:41;;;;;;;5.53;3.70;;;31.20;1.00;;;;;;5091245;28;20176;-80
2022/08/23 08:01:17;;;;;;;8.63;3.80;;;31.60;1.00;;;;;;5090066;28;20179;-80
2022/08/23 08:03:45;;;;;;;6.40;3.97;;;32.20;1.00;;;;;;5079966;28;20202;-80
2022/08/23 08:06:13;;;;;;;5.63;3.47;;;32.60;1.00;;;;;;5084513;28;20179;-79
2022/08/23 08:08:40;;;;;;;6.97;3.50;;;33.40;1.00;;;;;;5095274;28;20756;-80
2022/08/23 08:11:10;;;;;;;4.05;3.38;;;34.20;1.00;;;;;;5098375;28;20175;-83
2022/08/23 08:13:41;;;;;;;6.10;3.47;;;34.30;1.00;;;;;;5103349;28;20284;-82
2022/08/23 08:16:07;;;;;;;4.47;3.70;;;34.10;1.00;;;;;;5101864;28;20176;-82
2022/08/23 08:18:35;;;;;;;7.30;3.40;;;34.20;1.00;;;;;;5101801;28;20661;-81
2022/08/23 08:21:00;;;;;;;5.82;3.60;;;34.20;1.00;;;;;;5106863;28;20155;-84
2022/08/23 08:23:28;;;;;;;5.10;3.33;;;34.60;1.00;;;;;;5092168;28;20299;-82
2022/08/23 08:26:05;;;;;;;6.40;4.07;;;35.10;1.00;;;;;;5097136;28;20178;-81
2022/08/23 08:28:32;;;;;;;9.05;3.50;;;34.90;1.00;;;;;;5100565;28;20203;-81
2022/08/23 08:30:57;;;;;;;5.95;3.90;;;35.00;1.00;;;;;;5094347;28;20200;-80
2022/08/23 08:33:24;;;;;;;6.57;3.50;;;35.20;1.00;;;;;;5091902;28;20282;-80
2022/08/23 08:35:50;;;;;;;5.72;3.80;;;35.60;1.00;;;;;;5103140;28;20172;-80
2022/08/23 08:38:15;;;;;;;7.15;3.55;;;36.00;1.00;;;;;;5096089;28;20176;-80
2022/08/23 08:40:42;;;;;;;7.30;3.55;;;36.10;1.00;;;;;;5094790;28;20179;-79
2022/08/23 08:43:26;;;;;;;4.53;3.80;;;36.40;1.00;;;;;;5089053;28;20206;-82
2022/08/23 08:46:06;;;;;;;4.85;3.55;;;36.50;1.00;;;;;;5100174;28;20176;-81
2022/08/23 08:48:44;;;;;;;6.45;3.70;;;35.70;1.00;;;;;;5095204;28;20183;-82
2022/08/23 08:51:29;;;;;;;6.28;3.67;;;36.00;1.00;;;;;;5102960;28;20182;-82
2022/08/23 08:53:57;;;;;;;6.03;3.85;;;36.80;1.00;;;;;;5099922;28;20195;-80
2022/08/23 08:56:31;;;;;;;5.55;3.70;;;37.60;1.00;;;;;;5100293;28;20245;-81
2022/08/23 08:59:03;;;;;;;6.63;3.30;;;38.10;1.00;;;;;;5110193;28;20179;-83
2022/08/23 09:01:31;;;;;;;6.10;3.58;;;37.80;1.00;;;;;;5097502;28;20171;-83
2022/08/23 09:03:56;;;;;;;8.38;3.95;;;37.40;1.00;;;;;;5079775;28;20321;-80
2022/08/23 09:06:42;;;;;;;7.32;3.50;;;38.00;1.00;;;;;;5080775;28;20215;-82
2022/08/23 09:09:24;;;;;;;5.05;3.40;;;39.20;1.00;;;;;;5092647;28;20178;-82
2022/08/23 09:11:57;;;;;;;4.72;3.25;;;39.80;1.00;;;;;;5086959;28;20199;-82
2022/08/23 09:14:25;;;;;;;8.02;3.90;;;39.10;1.00;;;;;;5090118;28;20682;-82
2022/08/23 09:16:56;;;;;;;5.82;3.60;;;38.80;1.00;;;;;;5090480;28;20172;-81
2022/08/23 09:19:23;;;;;;;4.13;3.47;;;38.70;1.00;;;;;;5088537;28;20176;-83
2022/08/23 09:22:00;;;;;;;6.30;3.88;;;39.00;1.00;;;;;;5089938;28;20732;-82
2022/08/23 09:24:27;;;;;;;4.72;3.63;;;38.90;1.00;;;;;;5086761;28;20203;-84
2022/08/23 09:26:53;;;;;;;5.22;3.40;;;39.50;1.00;;;;;;5084818;28;20194;-81
2022/08/23 09:29:26;;;;;;;7.30;3.38;;;39.80;1.00;;;;;;5081799;28;20188;-81
2022/08/23 09:32:01;;;;;;;6.13;3.90;;;40.50;1.00;;;;;;5089623;28;20203;-83
2022/08/23 09:34:29;;;;;;;9.00;4.20;;;41.20;1.00;;;;;;5092160;28;20285;-83
2022/08/23 09:37:08;;;;;;;5.05;3.40;;;41.80;1.00;;;;;;5091131;28;20240;-81
2022/08/23 09:39:36;;;;;;;5.00;3.30;;;42.50;1.00;;;;;;5091820;28;20178;-81
2022/08/23 09:42:02;;;;;;;7.32;3.60;;;41.90;1.00;;;;;;5099777;28;20163;-83
2022/08/23 09:44:42;;;;;;;5.47;4.50;;;41.80;1.00;;;;;;5114635;28;20218;-80
2022/08/23 09:47:11;;;;;;;6.40;4.03;;;41.80;1.00;;;;;;5097143;28;20174;-81
2022/08/23 09:49:40;;;;;;;5.50;4.60;;;41.90;1.00;;;;;;5093497;28;20179;-81
2022/08/23 09:52:23;;;;;;;5.45;3.85;;;42.20;1.00;;;;;;5095022;28;20203;-82
2022/08/23 09:55:01;;;;;;;7.05;3.78;;;42.20;1.00;;;;;;5099264;28;20202;-80
2022/08/23 09:57:30;;;;;;;9.95;3.67;;;42.00;1.00;;;;;;5091982;28;20242;-81
2022/08/23 10:00:16;;;;;;;8.65;3.35;;;41.90;1.00;;;;;;5097876;28;20186;-84
2022/08/23 10:02:42;;;;;;;6.35;3.90;;;42.30;1.00;;;;;;5087874;28;20174;-81
2022/08/23 10:05:19;;;;;;;7.13;5.70;;;43.40;1.00;;;;;;5092335;28;20252;-82
2022/08/23 10:08:01;;;;;;;11.98;3.95;;;43.70;1.00;;;;;;5091019;28;20183;-82
2022/08/23 10:10:33;;;;;;;5.38;3.38;;;43.50;1.00;;;;;;5098989;28;20179;-83
2022/08/23 10:13:00;;;;;;;6.70;3.92;;;42.90;1.00;;;;;;5103029;28;20199;-84
2022/08/23 10:15:39;;;;;;;5.65;4.05;;;43.30;1.00;;;;;;5104348;28;20675;-80
2022/08/23 10:18:15;;;;;;;7.70;3.40;;;43.00;1.00;;;;;;5095852;28;20179;-81
2022/08/23 10:20:46;;;;;;;8.57;4.25;;;42.90;1.00;;;;;;5088476;28;20266;-81
2022/08/23 10:23:32;;;;;;;5.28;4.10;;;42.50;1.00;;;;;;5103462;28;20199;-82
2022/08/23 10:25:58;;;;;;;5.72;3.10;;;42.90;1.00;;;;;;5089913;28;20178;-83
2022/08/23 10:31:51;;;;;;;5.68;3.65;;;42.90;1.00;;;;;;5085973;28;20961;-80
2022/08/23 10:34:45;;;;;;;6.53;3.28;;;43.30;1.00;;;;;;5096200;28;20645;-80
2022/08/23 10:37:20;;;;;;;8.88;3.80;;;43.50;1.00;;;;;;5088558;28;20191;-82
2022/08/23 10:40:10;;;;;;;4.55;3.15;;;43.30;1.00;;;;;;5101517;28;20171;-81
2022/08/23 10:42:49;;;;;;;9.02;3.38;;;43.50;1.00;;;;;;5099281;28;20239;-81
2022/08/23 10:45:26;;;;;;;10.77;3.35;;;44.40;1.00;;;;;;5100607;28;20395;-81
2022/08/23 10:48:09;;;;;;;8.13;3.17;;;44.00;1.00;;;;;;5109138;28;20168;-82
2022/08/23 10:50:45;;;;;;;6.28;2.92;;;44.50;1.00;;;;;;5099900;28;20179;-83
2022/08/23 10:53:14;;;;;;;4.15;3.10;;;44.60;1.00;;;;;;5091900;28;20205;-82
2022/08/23 10:56:04;;;;;;;6.70;2.90;;;44.00;1.00;;;;;;5096583;28;20164;-81
2022/08/23 10:58:49;;;;;;;5.25;3.08;;;44.40;1.00;;;;;;5091125;28;20221;-82
2022/08/23 11:01:54;;;;;;;3.70;2.95;;;45.30;1.00;;;;;;5089585;28;20187;-81
2022/08/23 11:04:33;;;;;;;5.35;2.90;;;46.30;1.00;;;;;;5095411;28;20256;-83
2022/08/23 11:07:13;;;;;;;3.88;2.90;;;47.50;1.00;;;;;;5098379;28;20172;-83
2022/08/23 11:09:57;;;;;;;4.85;3.00;;;47.20;1.00;;;;;;5103101;28;20178;-82
2022/08/23 11:12:26;;;;;;;5.07;2.95;;;47.70;1.00;;;;;;5100859;28;20264;-83
2022/08/23 11:14:58;;;;;;;5.55;2.80;;;47.80;1.00;;;;;;5096776;28;20196;-83
2022/08/23 11:17:32;;;;;;;5.45;2.60;;;46.20;1.00;;;;;;5100185;28;20179;-82
2022/08/23 11:20:07;;;;;;;7.97;2.97;;;45.50;1.00;;;;;;5106394;28;20158;-81
2022/08/23 11:22:52;;;;;;;9.10;2.92;;;45.40;1.00;;;;;;5091528;28;20202;-83
2022/08/23 11:25:18;;;;;;;4.75;3.03;;;46.00;1.00;;;;;;5098985;28;20638;-82
2022/08/23 11:27:44;;;;;;;5.95;2.60;;;46.90;1.00;;;;;;5103992;28;20271;-81
2022/08/23 11:30:31;;;;;;;3.58;2.67;;;47.50;1.00;;;;;;5112839;28;20261;-82
2022/08/23 11:33:30;;;;;;;4.82;2.60;;;48.10;1.00;;;;;;5099055;28;20206;-82
2022/08/23 11:36:08;;;;;;;5.13;3.00;;;48.50;1.00;;;;;;5103271;28;20175;-82
2022/08/23 11:38:46;;;;;;;4.57;2.60;;;48.90;1.00;;;;;;5114437;28;20628;-83
2022/08/23 11:41:25;;;;;;;6.45;2.53;;;48.30;1.00;;;;;;5095151;28;20368;-82
2022/08/23 11:44:03;;;;;;;4.45;2.80;;;48.50;1.00;;;;;;5105901;28;20607;-83
2022/08/23 11:46:31;;;;;;;4.32;2.80;;;49.10;1.00;;;;;;5099196;28;20182;-81
2022/08/23 11:48:59;;;;;;;7.50;2.70;;;49.40;1.00;;;;;;5101675;28;20707;-83
2022/08/23 11:51:36;;;;;;;6.20;2.70;;;48.80;1.00;;;;;;5096731;28;20387;-82
2022/08/23 11:54:14;;;;;;;5.28;2.78;;;49.60;1.00;;;;;;5103622;28;20191;-81
2022/08/23 11:56:54;;;;;;;7.35;2.60;;;49.40;1.00;;;;;;5092955;28;20251;-81
2022/08/23 11:59:40;;;;;;;5.47;2.50;;;49.20;1.00;;;;;;5092587;28;20176;-82
2022/08/23 12:02:33;;;;;;;7.22;2.22;;;48.50;1.00;;;;;;5104203;28;20596;-82
2022/08/23 12:05:06;;;;;;;3.40;2.60;;;48.50;1.00;;;;;;5108628;28;20185;-83
2022/08/23 12:07:50;;;;;;;9.38;2.85;;;49.30;1.00;;;;;;5106190;28;20216;-82
2022/08/23 12:10:39;;;;;;;5.35;2.45;;;49.20;1.00;;;;;;5100064;28;20207;-80
2022/08/23 12:13:17;;;;;;;3.65;2.38;;;48.40;1.00;;;;;;5096648;28;20213;-79
2022/08/23 12:16:08;;;;;;;7.30;2.70;;;47.60;1.00;;;;;;5098263;28;20559;-81
2022/08/23 12:18:46;;;;;;;4.47;2.17;;;47.50;1.00;;;;;;5107047;28;20189;-84
2022/08/23 12:21:26;;;;;;;4.00;2.50;;;48.10;1.00;;;;;;5099728;28;20179;-81
2022/08/23 12:24:15;;;;;;;4.47;2.55;;;49.00;1.00;;;;;;5098098;28;20202;-82
2022/08/23 12:26:59;;;;;;;4.38;2.42;;;49.70;1.00;;;;;;5085378;28;20678;-81
2022/08/23 12:29:42;;;;;;;4.82;2.50;;;50.10;1.00;;;;;;5086446;28;20176;-81
2022/08/23 12:32:37;;;;;;;5.05;2.20;;;49.70;1.00;;;;;;5089908;28;20664;-82
2022/08/23 12:35:02;;;;;;;7.30;2.40;;;48.10;1.00;;;;;;5093513;28;20232;-83
2022/08/23 12:37:39;;;;;;;5.57;2.38;;;47.60;1.00;;;;;;5105855;28;20645;-81
2022/08/23 12:40:12;;;;;;;5.70;2.35;;;48.10;1.00;;;;;;5109437;28;20171;-82
2022/08/23 12:42:40;;;;;;;4.32;2.55;;;48.80;1.00;;;;;;5100324;28;20227;-81
2022/08/23 12:45:11;;;;;;;4.40;2.60;;;48.20;1.00;;;;;;5103678;28;20167;-82
2022/08/23 12:47:41;;;;;;;4.30;2.30;;;46.80;1.00;;;;;;5101908;28;20168;-82
2022/08/23 12:50:33;;;;;;;3.75;2.55;;;45.90;1.00;;;;;;5096629;28;20246;-83
2022/08/23 12:53:11;;;;;;;4.25;2.35;;;45.60;1.00;;;;;;5105738;28;20206;-83
2022/08/23 12:55:40;;;;;;;5.75;2.50;;;46.60;1.00;;;;;;5100229;28;20179;-82
2022/08/23 12:58:07;;;;;;;4.68;2.60;;;46.50;1.00;;;;;;5100461;28;20175;-84
2022/08/23 13:00:38;;;;;;;8.70;2.42;;;46.80;1.00;;;;;;5112194;28;20181;-82
2022/08/23 13:03:21;;;;;;;4.32;2.55;;;48.30;1.00;;;;;;5100255;28;20222;-83
2022/08/23 13:05:56;;;;;;;4.53;2.40;;;47.60;1.00;;;;;;5099448;28;20183;-82
2022/08/23 13:08:27;;;;;;;4.95;2.67;;;48.10;1.00;;;;;;5102908;28;20174;-81
2022/08/23 13:10:53;;;;;;;4.20;2.50;;;48.00;1.00;;;;;;5107267;28;20668;-83
2022/08/23 13:13:23;;;;;;;10.35;2.63;;;47.60;1.00;;;;;;5103734;28;20206;-83
2022/08/23 13:15:54;;;;;;;6.60;2.25;;;48.00;1.00;;;;;;5106705;28;20183;-81
2022/08/23 13:18:41;;;;;;;3.90;2.35;;;49.10;1.00;;;;;;5104399;28;20167;-81
2022/08/23 13:21:22;;;;;;;5.18;2.50;;;49.30;1.00;;;;;;5111340;28;20192;-82
2022/08/23 13:23:54;;;;;;;4.25;2.53;;;49.30;1.00;;;;;;5106353;28;20203;-82
2022/08/23 13:26:22;;;;;;;5.78;2.22;;;49.80;1.00;;;;;;5105685;28;20182;-83